Nearby METAR Reports

 

KSJC - San Jose, California, USA
Distance from station: NE 14km
Updated: 05/07/2022 08:53
Mostly cloudy
Mostly cloudy
 Wind from N
Wind: N 9 km/h
Temperature: 20°C
Dew Point: 16°C
Humidity: 78%
Barometer: 1014.6 hPa
Clouds: Mostly cloudy
Visibility: 14 km
Cloud details: Few Clouds 610 m
Mostly cloudy 2743 m
2022/07/05 06:53 KSJC 050653Z 36005KT 9SM FEW020 BKN090 20/16 A2996 RMK AO2 SLP146 T02000156
KNUQ - Moffett Nas/Mtn, California, USA
Distance from station: N 14km
Updated: 28/06/2022 13:55
NOT Current

 Wind from calm
Wind: Calm
Temperature: 15°C
Dew Point: 12°C
Humidity: 82%
Barometer: 1017.9 hPa
Visibility: 16 km
2022/06/28 11:55 KNUQ 281155Z AUTO 00000KT 10SM 15/12 A3006 RMK AO2
 
KPAO - Palo Alto, California, USA
Distance from station: NNW 23km
Updated: 05/07/2022 01:47
NOT Current
Mostly cloudy
Mostly cloudy
 Wind from NNW
Wind: NNW 24 km/h
Temperature: 22°C
Dew Point: 16°C
Humidity: 69%
Barometer: 1014.2 hPa
Clouds: Mostly cloudy
Visibility: 16 km
Cloud details: Partly cloudy 914 m
Mostly cloudy 3658 m
2022/07/04 23:47 KPAO 042347Z 34013KT 10SM SCT030 BKN120 22/16 A2995
KRHV - San Jose/Reid, California, USA
Distance from station: ENE 19km
Updated: 05/07/2022 06:50
NOT Current
Mostly cloudy
Mostly cloudy
 Wind from NNW
Wind: NNW 19 km/h
Temperature: 21°C
Dew Point: 15°C
Humidity: 69%
Barometer: 1014.9 hPa
Clouds: Mostly cloudy
Visibility: 16 km
Cloud details: Mostly cloudy 2743 m
2022/07/05 04:50 KRHV 050450Z 34010KT 10SM BKN090 21/15 A2997
 
KOAK - Oakland, California, USA
Distance from station: NNW 50km
Updated: 05/07/2022 08:53
Mostly cloudy
Mostly cloudy
 Wind from N
Wind: N 7 km/h
Temperature: 18°C
Dew Point: 16°C
Humidity: 88%
Barometer: 1014.9 hPa
Clouds: Mostly cloudy
Visibility: 16 km
Cloud details: Partly cloudy 213 m
Mostly cloudy 549 m
Mostly cloudy 2743 m
2022/07/05 06:53 KOAK 050653Z 35004KT 10SM SCT007 BKN018 BKN090 18/16 A2997 RMK AO2 SLP149 T01780161
KSQL - San Carlos Airpo, California, USA
Distance from station: NW 34km
Updated: 05/07/2022 08:55
Overcast
Overcast
 Wind from calm
Wind: Calm
Temperature: 19°C
Dew Point: 17°C
Humidity: 88%
Barometer: 1014.9 hPa
Clouds: Overcast
Visibility: 16 km
Cloud details: Few Clouds 1981 m
Overcast 2591 m
2022/07/05 06:55 KSQL 050655Z AUTO 00000KT 10SM FEW065 OVC085 19/17 A2997 RMK AO2
 
KSFO - San Francisco, California, USA
Distance from station: NW 49km
Updated: 05/07/2022 08:56
Mostly cloudy
Mostly cloudy
 Wind from calm
Wind: Calm
Temperature: 19°C
Dew Point: 16°C
Humidity: 83%
Barometer: 1014.6 hPa
Clouds: Mostly cloudy
Visibility: 16 km
Cloud details: Few Clouds 244 m
Partly cloudy 549 m
Mostly cloudy 2591 m
2022/07/05 06:56 KSFO 050656Z 00000KT 10SM FEW008 SCT018 BKN085 19/16 A2996 RMK AO2 SLP144 T01940156
KE16 - San Martin, California, USA
Distance from station: ESE 43km
Updated: 05/07/2022 08:55
Partly cloudy
Partly cloudy
 Wind from S
Wind: S 9 km/h
Temperature: 17°C
Dew Point: 15°C
Humidity: 88%
Barometer: 1015.9 hPa
Clouds: Partly cloudy
Visibility: 16 km
Cloud details: Partly cloudy 640 m
2022/07/05 06:55 KE16 050655Z AUTO 18005KT 10SM SCT021 17/15 A3000 RMK AO2 PWINO PNO
 
KWVI - Watsonville, California, USA
Distance from station: SSE 44km
Updated: 05/07/2022 08:53
Overcast
Overcast
 Wind from calm
Wind: Calm
Temperature: 15°C
Dew Point: 15°C
Humidity: 100%
Barometer: 1015.6 hPa
Clouds: Overcast
Visibility: 16 km
Cloud details: Overcast 152 m
2022/07/05 06:53 KWVI 050653Z AUTO 00000KT 10SM OVC005 15/15 A2999 RMK AO2 SLP153 T01500150
KHAF - Half Moon Bay, California, USA
Distance from station: WNW 50km
Updated: 05/07/2022 08:55
Fog, Overcast
Fog, Overcast
 Wind from SE
Wind: SE 9 km/h
Temperature: 16°C
Dew Point: 16°C
Humidity: 100%
Barometer: 1014.9 hPa
Summary: Fog
Clouds: Overcast
Visibility: 0.4 km
Cloud details: Overcast 61 m
2022/07/05 06:55 KHAF 050655Z AUTO 13005KT 1/4SM FG OVC002 16/16 A2997 RMK AO2
 
KHWD - Hayward, California, USA
Distance from station: N 44km
Updated: 05/07/2022 08:54
Overcast
Overcast
 Wind from NW
Wind: NW 6 km/h
Temperature: 18°C
Dew Point: 16°C
Humidity: 88%
Barometer: 1014.6 hPa
Clouds: Overcast
Visibility: 16 km
Cloud details: Few Clouds 610 m
Overcast 2591 m
2022/07/05 06:54 KHWD 050654Z AUTO 31003KT 10SM FEW020 OVC085 18/16 A2996 RMK AO2 SLP154 T01830156
KLVK - Livermore, California, USA
Distance from station: NNE 51km
Updated: 05/07/2022 08:53
Overcast
Overcast
 Wind from W
Wind: W 7 km/h
Temperature: 19°C
Dew Point: 15°C
Humidity: 78%
Barometer: 1014.6 hPa
Clouds: Overcast
Visibility: 16 km
Cloud details: Overcast 2591 m
2022/07/05 06:53 KLVK 050653Z AUTO 27004KT 10SM OVC085 19/15 A2996 RMK AO2 SLP140 T01890150